Latest Coastal Weather Observations for Willis Island

IDQ60701

Issued at 1:12 am EST Thursday 11 August 2022 (issued every 10 minutes, with the page automatically refreshed every 10 minutes)

About coastal observations | Map of coastal stations | Coastal observations for QLD | Marine services | Other Formats
Station Details ID: 200283 Name: WILLIS ISLAND Lat: -16.29 Lon: 149.97 Height: 9.29 m
Data from the previous 72 hours. | See also: Recent months at Willis Island
Date/Time
EST
Wind Sea
Height
m
Swell Vis
km
Cloud Weather Temp
°C
Press
MSL
hPa
Rain since
9am
mm
Dir  Spd
kts
Gust
kts
Height
m
Period
s
Dir
11/01:00am ESE 23 29 - - - - - - - 24.2 1016.3 0.0
11/12:30am ESE 23 27 - - - - - - - 24.3 1016.6 0.0
11/12:00am SE 23 27 - - - - - - - 24.4 1017.0 0.0
 
Date/Time
EST
Wind Sea
Height
m
Swell Vis
km
Cloud Weather Temp
°C
Press
MSL
hPa
Rain since
9am
mm
Dir  Spd
kts
Gust
kts
Height
m
Period
s
Dir
10/11:30pm ESE 22 26 - - - - - - - 24.5 1017.2 0.0
10/11:00pm ESE 23 28 - - - - - - - 24.4 1017.3 0.0
10/10:30pm ESE 22 25 - - - - - - - 24.6 1017.4 0.0
10/10:00pm ESE 21 24 - - - - - - - 24.7 1017.5 0.0
10/09:30pm ESE 23 29 - - - - - - - 24.6 1017.5 0.0
10/09:00pm ESE 22 27 - - - - - - - 24.6 1017.4 0.0
10/08:30pm ESE 24 29 - - - - - - - 24.5 1017.3 0.0
10/08:00pm ESE 25 29 - - - - - - - 24.5 1016.9 0.0
10/07:30pm SE 24 28 - - - - - - - 24.4 1016.8 0.0
10/07:00pm SE 24 29 - - - - - - - 24.6 1016.5 0.0
10/06:30pm SE 24 28 - - - - - - - 24.2 1016.4 0.0
10/06:00pm SE 24 28 - - - - - - - 24.3 1016.0 0.0
10/05:30pm SE 22 27 - - - - - - - 24.4 1015.8 0.0
10/05:00pm SE 23 28 - - - - - - - 24.4 1015.6 0.0
10/04:30pm SE 23 28 - - - - - - - 24.8 1015.4 0.0
10/04:00pm SE 24 28 - - - - - - - 25.3 1015.2 0.0
10/03:30pm SE 24 29 - - - - - - - 25.4 1015.0 0.0
10/03:00pm SE 25 28 - - - - - - - 25.5 1015.0 0.0
10/02:30pm SE 23 28 - - - - - - - 25.7 1015.0 0.0
10/02:00pm SE 24 28 - - - - - - - 26.0 1015.2 0.0
10/01:30pm SE 25 28 - - - - - - - 26.0 1015.6 0.0
10/01:00pm SE 24 28 - - - - - - - 26.0 1015.7 0.0
10/12:30pm SE 24 28 - - - - - - - 26.5 1016.1 0.0
10/12:00pm SE 25 30 - - - - - - - 25.5 1016.5 0.0
10/11:30am SE 24 29 - - - - - - - 26.1 1016.9 0.0
10/11:00am SE 24 29 - - - - - - - 25.8 1017.2 0.0
10/10:30am SE 23 28 - - - - - - - 25.3 1017.6 0.0
10/10:00am SE 24 28 - - - - - - - 25.8 1017.7 0.0
10/09:30am SE 24 27 - - - - - - - 25.6 1017.7 0.0
10/09:00am SE 23 27 - - - - - - - 24.6 1017.6 0.0
10/08:30am SE 22 25 - - - - - - - 24.4 1017.6 0.0
10/08:00am SE 21 25 - - - - - - - 24.5 1017.3 0.0
10/07:30am SE 22 26 - - - - - - - 24.1 1017.1 0.0
10/07:00am SE 22 27 - - - - - - - 23.7 1016.6 0.0
10/06:30am SE 22 27 - - - - - - - 23.9 1016.3 0.0
10/06:00am SE 20 24 - - - - - - - 23.0 1016.0 0.0
10/05:30am SE 18 22 - - - - - - - 23.5 1015.6 0.0
10/05:00am SE 19 22 - - - - - - - 23.5 1015.2 0.0
10/04:30am SE 20 25 - - - - - - - 23.5 1015.0 0.0
10/04:00am SE 20 23 - - - - - - - 23.7 1015.0 0.0
10/03:30am SE 22 25 - - - - - - - 23.6 1015.0 0.0
10/03:00am SE 21 25 - - - - - - - 23.7 1015.1 0.0
10/02:30am SSE 21 25 - - - - - - - 23.3 1015.2 0.0
10/02:00am SE 20 24 - - - - - - - 23.5 1015.4 0.0
10/01:30am SE 19 23 - - - - - - - 23.6 1015.4 0.0
10/01:00am SE 20 24 - - - - - - - 23.5 1015.8 0.0
10/12:30am SE 20 23 - - - - - - - 23.6 1016.0 0.0
10/12:00am SE 20 23 - - - - - - - 23.5 1016.3 0.0
 
Date/Time
EST
Wind Sea
Height
m
Swell Vis
km
Cloud Weather Temp
°C
Press
MSL
hPa
Rain since
9am
mm
Dir  Spd
kts
Gust
kts
Height
m
Period
s
Dir
09/11:30pm SE 20 23 - - - - - - - 23.5 1016.4 0.0
09/11:00pm SE 20 25 - - - - - - - 23.5 1016.7 0.0
09/10:30pm SE 21 24 - - - - - - - 23.6 1017.0 0.0
09/10:00pm SE 20 24 - - - - - - - 23.4 1017.1 0.0
09/09:30pm SE 22 26 - - - - - - - 23.4 1017.1 0.0
09/09:00pm SE 21 26 - - - - - - - 23.7 1017.0 0.0
09/08:30pm SE 20 25 - - - - - - - 23.5 1016.9 0.0
09/08:00pm SE 20 24 - - - - - - - 23.6 1016.6 0.0
09/07:30pm SE 22 25 - - - - - - - 23.3 1016.2 0.0
09/07:00pm SE 21 25 - - - - - - - 23.4 1015.7 0.0
09/06:30pm SE 22 27 - - - - - - - 23.1 1015.4 0.0
09/06:00pm SE 19 23 - - - - - - - 22.8 1015.3 0.0
09/05:30pm SE 19 24 - - - - - - - 23.1 1015.0 0.0
09/05:00pm SE 19 24 - - - - - - - 23.1 1014.7 0.0
09/04:30pm SE 21 27 - - - - - - - 23.4 1014.2 0.0
09/04:00pm SE 20 24 - - - - - - - 23.4 1014.1 0.0
09/03:30pm SSE 20 24 - - - - - - - 23.9 1013.8 0.0
09/03:00pm SSE 21 25 - - - - - - - 23.5 1013.6 0.0
09/02:30pm SSE 22 28 - - - - - - - 24.4 1013.5 0.0
09/02:00pm SSE 20 24 - - - - - - - 24.9 1013.8 0.0
09/01:30pm SSE 21 24 - - - - - - - 24.5 1014.1 0.0
09/01:00pm SSE 21 25 - - - - - - - 25.3 1014.3 0.0
09/12:30pm SSE 21 25 - - - - - - - 25.6 1014.6 0.0
09/12:00pm SSE 21 26 - - - - - - - 25.1 1015.0 0.0
09/11:30am SSE 22 26 - - - - - - - 24.6 1015.3 0.0
09/11:00am SSE 20 26 - - - - - - - 25.6 1015.6 0.0
09/10:30am SSE 21 24 - - - - - - - 25.1 1016.0 0.0
09/10:00am SSE 21 25 - - - - - - - 24.7 1016.1 0.0
09/09:30am SSE 21 25 - - - - - - - 25.1 1016.3 0.0
09/09:00am SSE 21 26 - - - - - - - 24.8 1016.2 0.2
09/08:30am SE 21 27 - - - - - - - 24.5 1016.2 0.2
09/08:00am SSE 22 25 - - - - - - - 24.4 1016.0 0.2
09/07:30am SE 23 28 - - - - - - - 24.3 1015.8 0.2
09/07:00am SE 23 27 - - - - - - - 23.8 1015.6 0.2
09/06:30am SE 20 24 - - - - - - - 23.8 1015.4 0.2
09/06:00am SE 21 26 - - - - - - - 23.7 1015.1 0.2
09/05:30am SE 22 27 - - - - - - - 23.8 1014.7 0.2
09/05:00am SE 23 27 - - - - - - - 23.7 1014.5 0.2
09/04:30am SE 23 27 - - - - - - - 23.6 1014.2 0.2
09/04:00am SE 23 29 - - - - - - - 23.8 1014.1 0.2
09/03:30am SE 22 26 - - - - - - - 23.8 1014.2 0.2
09/03:00am SE 23 28 - - - - - - - 23.7 1014.2 0.2
09/02:30am SE 23 26 - - - - - - - 24.0 1014.2 0.2
09/02:00am SE 24 27 - - - - - - - 24.0 1014.4 0.2
09/01:30am SE 24 29 - - - - - - - 23.9 1014.6 0.2
09/01:00am SE 24 29 - - - - - - - 24.0 1014.9 0.2
09/12:30am SE 23 27 - - - - - - - 24.4 1015.1 0.2
09/12:00am SE 24 29 - - - - - - - 24.4 1015.2 0.2
 
Date/Time
EST
Wind Sea
Height
m
Swell Vis
km
Cloud Weather Temp
°C
Press
MSL
hPa
Rain since
9am
mm
Dir  Spd
kts
Gust
kts
Height
m
Period
s
Dir
08/11:30pm SE 24 27 - - - - - - - 24.4 1015.3 0.2
08/11:00pm SE 24 28 - - - - - - - 24.6 1015.4 0.2
08/10:30pm SE 24 28 - - - - - - - 24.6 1015.7 0.2
08/10:00pm SE 25 28 - - - - - - - 24.8 1015.7 0.2
08/09:30pm SE 23 27 - - - - - - - 24.8 1015.6 0.2
08/09:00pm SSE 23 27 - - - - - - - 25.0 1015.4 0.2
08/08:30pm SE 23 27 - - - - - - - 25.1 1015.1 0.2
08/08:00pm SE 22 26 - - - - - - - 24.9 1014.9 0.2
08/07:30pm SSE 24 28 - - - - - - - 24.9 1014.3 0.2
08/07:00pm SE 22 26 - - - - - - - 25.0 1014.0 0.2
08/06:30pm SE 23 27 - - - - - - - 25.2 1013.6 0.2
08/06:00pm SE 22 26 - - - - - - - 25.0 1013.3 0.2
08/05:30pm SE 22 25 - - - - - - - 25.1 1013.0 0.2
08/05:00pm SE 19 22 - - - - - - - 25.9 1012.7 0.2
08/04:30pm SE 20 23 - - - - - - - 25.8 1012.7 0.2
08/04:00pm SE 20 26 - - - - - - - 25.9 1012.4 0.2
08/03:30pm SE 21 25 - - - - - - - 26.2 1012.1 0.2
08/03:00pm SE 21 26 - - - - - - - 26.6 1012.1 0.2
08/02:30pm SE 21 25 - - - - - - - 26.9 1012.1 0.2
08/02:00pm SE 22 25 - - - - - - - 26.6 1012.5 0.2
08/01:30pm SE 21 24 - - - - - - - 27.1 1012.8 0.2
08/01:00pm SE 20 24 - - - - - - - 27.1 1013.2 0.2
08/12:30pm SE 21 24 - - - - - - - 27.2 1013.6 0.2
08/12:00pm SSE 21 25 - - - - - - - 27.0 1013.9 0.2
08/11:30am SE 21 25 - - - - - - - 27.6 1014.2 0.2
08/11:00am SSE 23 27 - - - - - - - 26.9 1014.5 0.2
08/10:30am SSE 23 26 - - - - - - - 27.0 1014.9 0.2
08/10:00am SE 21 25 - - - - - - - 26.5 1015.2 0.0
08/09:30am SE 19 22 - - - - - - - 26.9 1015.3 0.0
08/09:00am SSE 19 22 - - - - - - - 26.1 1015.3 0.4
08/08:30am SSE 18 21 - - - - - - - 26.2 1015.1 0.4
08/08:00am SSE 18 20 - - - - - - - 26.0 1014.9 0.4
08/07:30am SE 16 19 - - - - - - - 25.5 1014.6 0.4
08/07:00am SSE 18 22 - - - - - - - 25.2 1014.5 0.4
08/06:30am SSE 19 23 - - - - - - - 25.1 1014.2 0.4
08/06:00am SSE 19 21 - - - - - - - 24.7 1013.7 0.4
08/05:30am SSE 18 22 - - - - - - - 25.1 1013.3 0.4
08/05:00am SSE 19 22 - - - - - - - 24.6 1013.0 0.4
08/04:30am SSE 20 23 - - - - - - - 25.0 1012.8 0.4
08/04:00am SSE 19 23 - - - - - - - 24.7 1012.7 0.4
08/03:30am SE 20 23 - - - - - - - 24.4 1012.7 0.4
08/03:00am SE 19 23 - - - - - - Recent precip. 24.5 1012.5 0.4
08/02:30am SSE 21 25 - - - - - - - 23.8 1012.8 0.4
08/02:00am SE 18 21 - - - - - - - 24.0 1013.0 0.2
08/01:30am SSE 19 22 - - - - - - - 24.7 1013.1 0.0

Other formats

Comma delimited format used in spreadsheet applications
http://www.bom.gov.au/fwo/IDQ60701/IDQ60701.94299.axf

JavaScript Object Notation format (JSON) in row-major order
http://www.bom.gov.au/fwo/IDQ60701/IDQ60701.94299.json

Data quality

Most of these data are generated automatically and are frequently updated. Quality checks on data are not normally performed. It is possible for incorrect values to appear. Refer to information at About Latest Weather Observations and please check the disclaimer before using these data.